Valle Toledo, Valles Caldera, New Mexico Weather observations

Data are for 10 minute period ending at time listed.
 Day   Time   Solar   Ave.   Ave.  Ave.  Vector  Max.   Baro.   Total    
  of    of     Rad.   Air    Rel.  Wind   Wind   Wind  Press.  Precip.   
Year   Day            Temp.  Hum.  Speed  Dir.   Gust                    
2026   (MST)  Kw/m2    F      %     mph   deg.    mph    mb.     in.     
-------------------------------------------------------------------------
 245   21:30   0.00   55.5    40    0.0     0     0.0   736.9    0.00 
 245   21:40   0.00   55.4    40    0.0     0     0.0   736.8    0.00 
 245   21:50   0.00   54.9    42    0.0     0     0.0   736.8    0.00 
 245   22:00   0.00   54.9    42    0.0     0     0.0   736.8    0.00 
 245   22:10   0.00   54.8    44    0.0     0     0.0   736.8    0.00 
 245   22:20   0.00   54.7    45    0.0     0     0.0   736.7    0.00 
 245   22:30   0.00   53.8    48    0.0     0     0.0   736.7    0.00 
 245   22:40   0.00   53.1    50    0.0     0     0.0   736.6    0.00 
 245   22:50   0.00   52.7    50    0.0     0     0.0   736.5    0.00 
 245   23:00   0.00   52.3    50    0.0     0     0.0   736.5    0.00 
 245   23:10   0.00   51.9    52    0.0     0     0.0   736.5    0.00 
 245   23:20   0.00   51.4    53    0.0     0     0.0   736.5    0.00 
 245   23:30   0.00   51.3    52    0.0     0     0.0   736.5    0.00 
 245   23:40   0.00   51.4    52    0.0     0     0.0   736.5    0.00 
 245   23:50   0.00   51.3    52    0.0     0     0.0   736.5    0.00 
 246    0:00   0.00   51.1    53    0.0     0     0.0   736.5    0.00 
 246    0:10   0.00   51.4    53    0.0     0     0.0   736.5    0.00 
 246    0:20   0.00   51.5    53    0.0     0     0.0   736.5    0.00 
 246    0:30   0.00   50.9    55    0.0     0     0.0   736.5    0.00 
 246    0:40   0.00   50.6    56    0.0     0     0.0   736.5    0.00 
 246    0:50   0.00   50.9    56    0.0     0     0.0   736.4    0.00 
 246    1:00   0.00   51.4    55    0.0     0     0.0   736.3    0.00 
 246    1:10   0.00   51.3    56    0.0     0     0.0   736.3    0.00 
 246    1:20   0.00   51.1    59    0.0     0     0.0   736.3    0.00 
 246    1:30   0.00   52.0    58    0.0     0     0.0   736.4    0.00 
 246    1:40   0.00   53.5    57    0.0     0     0.0   736.0    0.00 
 246    1:50   0.00   53.1    59    0.0     0     0.0   736.0    0.00 
 246    2:00   0.00   52.9    60    0.0     0     0.0   736.0    0.00 
 246    2:10   0.00   52.5    62    0.0     0     0.0   735.9    0.00 
 246    2:20   0.00   52.0    63    0.0     0     0.0   735.9    0.00 
 246    2:30   0.00   51.4    65    0.0     0     0.0   735.9    0.00 
 246    2:40   0.00   51.1    66    0.0     0     0.0   736.1    0.00 
 246    2:50   0.00   51.1    66    0.0     0     0.0   736.3    0.00 
 246    3:00   0.00   50.6    67    0.0     0     0.0   736.3    0.00 
 246    3:10   0.00   50.3    68    0.0     0     0.0   736.1    0.00 
 246    3:20   0.00   50.2    69    0.0     0     0.0   736.1    0.00 
 246    3:30   0.00   50.8    68    0.0     0     0.0   736.2    0.00 
 246    3:40   0.00   51.2    66    0.0     0     0.0   736.2    0.00 
 246    3:50   0.00   51.6    66    0.0     0     0.0   736.2    0.00 
 246    4:00   0.00   52.8    64    0.0     0     0.0   736.2    0.00 
 246    4:10   0.00   53.4    62    0.0     0     0.0   736.2    0.00 
 246    4:20   0.00   53.1    63    0.0     0     0.0   736.3    0.00 
 246    4:30   0.00   52.9    64    0.0     0     0.0   736.4    0.00 
 246    4:40   0.00   52.5    65    0.0     0     0.0   736.5    0.00 
 246    4:50   0.00   52.7    66    0.0     0     0.0   736.5    0.00 
 246    5:00   0.00   52.6    66    0.0     0     0.0   736.4    0.00 
 246    5:10   0.00   52.5    66    0.0     0     0.0   736.4    0.00 
 246    5:20   0.00   52.8    66    0.0     0     0.0   736.5    0.00 
 246    5:30   0.00   53.2    65    0.0     0     0.0   736.4    0.00 
 246    5:40   0.00   52.9    65    0.1   158     1.8   736.4    0.00 
 246    5:50   0.01   50.2    71    0.0     0     0.0   736.4    0.00 
 246    6:00   0.02   49.7    73    0.0     0     0.0   736.5    0.00 
 246    6:10   0.02   51.0    70    0.0     0     0.0   736.6    0.00 
 246    6:20   0.03   51.5    69    0.0     0     0.0   736.8    0.00 
 246    6:30   0.04   51.2    70    0.0     0     0.0   736.7    0.00 
 246    6:40   0.04   51.8    69    0.0     0     0.0   736.8    0.00 
 246    6:50   0.16   53.8    65    0.0     0     0.0   736.8    0.00 
 246    7:00   0.23   56.9    60    0.0     0     0.0   736.9    0.00 
 246    7:10   0.26   60.0    55    0.0     0     0.0   737.0    0.00 
 246    7:20   0.16   61.0    51    0.0     0     0.0   736.9    0.00 
 246    7:30   0.30   60.3    54    0.0     0     0.0   737.0    0.00 
 246    7:40   0.36   62.0    48    0.0     0     0.0   737.0    0.00 
 246    7:50   0.40   61.8    49    0.0     0     0.0   737.0    0.00 
 246    8:00   0.44   61.4    50    0.0     0     0.0   737.0    0.00 
 246    8:10   0.47   61.2    50    0.0     0     0.0   737.0    0.00 
 246    8:20   0.46   62.3    47    0.9    81     6.0   737.0    0.00 
 246    8:30   0.41   61.9    45    1.0    75     9.0   737.0    0.00 
 246    8:40   0.42   62.4    45    2.1    53     7.2   737.1    0.00 
 246    8:50   0.38   63.0    43    1.6    82     6.6   737.1    0.00 
 246    9:00   0.51   62.7    42    0.0     0     0.0   737.0    0.00 
 246    9:10   0.75   65.4    38    0.0     0     0.0   737.0    0.00 
 246    9:20   0.76   66.2    36    4.3    66    11.3   737.0    0.00 
 246    9:30   0.82   66.2    35    6.1    49    10.8   737.0    0.00 
 246    9:40   0.88   67.2    33    6.2    70    11.3   737.1    0.00 
 246    9:50   0.75   67.7    32    5.6    52    12.5   737.1    0.00 
 246   10:00   0.53   66.2    33    6.2    57    14.3   737.3    0.00 
 246   10:10   0.57   66.6    33    3.3    83    11.3   737.4    0.00 
 246   10:20   0.77   66.4    34    3.9    63     9.6   737.4    0.00 
 246   10:30   0.80   68.9    32    5.2    72    10.2   737.3    0.00 
 246   10:40   0.75   67.7    32    6.7    65    11.9   737.1    0.00 
 246   10:50   0.52   66.8    33    5.5    70    10.2   737.2    0.00 
 246   11:00   0.58   67.0    33    4.1    56     9.0   737.3    0.00 
 246   11:10   0.43   66.7    34    4.0    69     9.0   737.3    0.00 
 246   11:20   0.48   66.5    34    6.2    70    11.9   737.3    0.00 
 246   11:30   0.27   65.3    36    2.9    55    10.2   737.3    0.00 
 246   11:40   0.27   65.5    36    0.5    40     9.6   737.3    0.00 
 246   11:50   0.32   65.4    37    0.1    54     4.2   737.2    0.00 
 246   12:00   0.92   67.6    35    0.6    24    10.2   737.0    0.00 
 246   12:10   0.96   69.6    32    0.1   345     4.2   736.8    0.00 
 246   12:20   1.08   71.3    32    0.0     0     0.0   736.6    0.00 
 246   12:30   0.78   71.1    32    0.0     0     0.0   736.4    0.00 
 246   12:40   0.80   70.8    32    0.0     0     0.0   736.4    0.00 
 246   12:50   0.99   71.4    32    0.0     0     0.0   736.4    0.00 
 246   13:00   0.97   71.7    32    0.0     0     0.0   736.3    0.00 
 246   13:10   0.53   72.4    31    1.5    62     9.0   736.2    0.00 
 246   13:20   0.38   68.4    35    4.7    85    10.8   736.2    0.00 
 246   13:30   0.84   69.6    33    3.4    81    10.8   736.2    0.00 
 246   13:40   0.75   70.1    33    4.8    55    11.9   735.9    0.00 
 246   13:50   0.92   72.1    30    4.9    47     9.6   735.9    0.00 
 246   14:00   0.62   72.7    30    3.6    45    10.2   735.7    0.00 
 246   14:10   0.78   71.7    30    3.4    44     7.8   735.5    0.00 
 246   14:20   0.79   72.5    29    0.0     0     0.0   735.4    0.00 
 246   14:30   0.74   73.6    29    0.0     0     0.0   735.4    0.00 
 246   14:40   0.26   71.9    30    0.0     0     0.0   735.2    0.00 
 246   14:50   0.20   70.1    31    0.0     0     0.0   735.2    0.00 
 246   15:00   0.64   71.4    31    0.0     0     0.0   735.3    0.00 
 246   15:10   0.23   72.8    29    0.0     0     0.0   735.3    0.00 
 246   15:20   0.68   73.1    30    0.0     0     0.0   735.2    0.00 
 246   15:30   0.30   72.9    29    0.0     0     0.0   735.0    0.00 
 246   15:40   0.41   71.4    31    0.0     0     0.0   734.9    0.00 
 246   15:50   0.59   73.4    29    0.0     0     0.0   734.8    0.00 
 246   16:00   0.53   74.0    28    0.0     0     0.0   734.7    0.00 
 246   16:10   0.30   74.0    27    0.0     0     0.0   734.7    0.00 
 246   16:20   0.08   71.0    30    0.0     0     0.0   734.7    0.00 
 246   16:30   0.12   69.6    32    0.0     0     0.0   734.8    0.00 
 246   16:40   0.09   69.2    33    0.0     0     0.0   734.9    0.00 
 246   16:50   0.08   69.0    34    0.0     0     0.0   735.0    0.00 
 246   17:00   0.07   68.9    34    0.0     0     0.0   735.1    0.00 
 246   17:10   0.04   68.5    34    0.0     0     0.0   735.2    0.00 
 246   17:20   0.03   68.0    35    0.0     0     0.0   735.3    0.00 
 246   17:30   0.03   67.1    36    0.0     0     0.0   735.3    0.00 
 246   17:40   0.01   66.7    37    0.0     0     0.0   735.3    0.00 
 246   17:50   0.01   66.1    38    0.0     0     0.0   735.4    0.00 
 246   18:00   0.00   65.1    40    0.0     0     0.0   735.5    0.00 
 246   18:10   0.00   63.8    45    0.0     0     0.0   735.7    0.00 
 246   18:20   0.00   62.6    50    0.0     0     0.0   735.8    0.00 
 246   18:30   0.00   60.5    58    0.0     0     0.0   736.2    0.00 
 246   18:40   0.00   57.4    71    0.0     0     0.0   736.6    0.02 
 246   18:50   0.00   55.1    78    0.0     0     0.0   736.8    0.01 
 246   19:00   0.00   54.0    83    0.0     0     0.0   736.8    0.01 
 246   19:10   0.00   53.5    84    0.0     0     0.0   736.6    0.01 
 246   19:20   0.00   53.3    82    0.0     0     0.0   736.2    0.01 
 246   19:30   0.00   54.2    73    0.0     0     0.0   735.8    0.00 
 246   19:40   0.00   54.5    74    0.0     0     0.0   735.9    0.00 
 246   19:50   0.00   53.1    82    0.0     0     0.0   736.3    0.00 
 246   20:00   0.00   52.9    83    0.0     0     0.0   736.4    0.00 
 246   20:10   0.00   53.0    83    0.0     0     0.0   736.2    0.00 
 246   20:20   0.00   53.2    81    0.0     0     0.0   736.2    0.00 
 246   20:30   0.00   53.2    82    0.0     0     0.0   736.3    0.00 
 246   20:40   0.00   53.1    83    0.0     0     0.0   736.1    0.00 
 246   20:50   0.00   52.9    83    0.0     0     0.0   736.1    0.00 
 246   21:00   0.00   52.8    84    0.0     0     0.0   736.0    0.00 
 246   21:10   0.00   52.9    84    0.0     0     0.0   736.0    0.00 
 246   21:20   0.00   52.5    84    0.0     0     0.0   736.1    0.00 

Return to Valle Toledo, Valles Caldera graphs page.


Western Regional Climate Center,wrcc@dri.edu